Time;durP1;ratioP1;P1;durP2;ratioP2;P2;SDS_P1;SDS_P2;PMS_P1;PMS_P2;Temp;Humidity;BMP_temperature;BMP_pressure;BME280_temperature;BME280_humidity;BME280_pressure;Samples;Min_cycle;Max_cycle;Signal;HPM_P1;HPM_P2
2021/12/14 00:02:12;;;;;;;19.07;13.37;;;9.80;99.90;;;;;;4934457;28;20231;-77
2021/12/14 00:04:39;;;;;;;19.87;13.77;;;9.80;99.90;;;;;;4968932;28;20220;-79
2021/12/14 00:07:10;;;;;;;18.37;13.40;;;9.80;99.90;;;;;;4969360;28;20215;-80
2021/12/14 00:09:41;;;;;;;19.87;15.60;;;9.80;99.90;;;;;;4968779;28;20220;-78
2021/12/14 00:12:25;;;;;;;20.60;13.80;;;9.80;99.90;;;;;;4968741;28;20224;-78
2021/12/14 00:15:04;;;;;;;26.47;15.70;;;9.80;99.90;;;;;;4969674;28;20209;-78
2021/12/14 00:17:38;;;;;;;21.77;15.43;;;9.80;99.90;;;;;;4968752;28;20316;-79
2021/12/14 00:20:13;;;;;;;21.10;15.67;;;9.80;99.90;;;;;;4968685;28;20192;-78
2021/12/14 00:25:25;;;;;;;20.07;15.07;;;9.80;99.90;;;;;;4968163;28;20916;-80
2021/12/14 00:27:52;;;;;;;19.03;13.37;;;9.80;99.90;;;;;;4968053;28;20201;-79
2021/12/14 00:30:19;;;;;;;22.90;15.87;;;9.70;99.90;;;;;;4968311;28;20736;-78
2021/12/14 00:32:47;;;;;;;23.93;15.80;;;9.70;99.90;;;;;;4984493;28;20239;-80
2021/12/14 00:35:14;;;;;;;21.37;15.67;;;9.70;99.90;;;;;;4988199;28;20214;-78
2021/12/14 00:37:43;;;;;;;19.70;15.37;;;9.70;99.90;;;;;;4988341;28;20204;-78
2021/12/14 00:40:14;;;;;;;25.10;16.37;;;9.70;99.90;;;;;;4987688;28;20211;-78
2021/12/14 00:42:42;;;;;;;21.70;16.23;;;9.70;99.90;;;;;;4988098;28;20538;-77
2021/12/14 00:45:10;;;;;;;22.60;16.90;;;9.70;99.90;;;;;;4989780;28;20212;-78
2021/12/14 00:47:37;;;;;;;21.30;15.93;;;9.70;99.90;;;;;;4986495;28;20803;-77
2021/12/14 00:50:05;;;;;;;35.43;17.47;;;9.60;99.90;;;;;;4995277;28;20634;-77
2021/12/14 00:52:32;;;;;;;24.47;16.97;;;9.60;99.90;;;;;;5006847;28;20223;-77
2021/12/14 00:55:00;;;;;;;22.77;17.13;;;9.60;99.90;;;;;;4996023;28;20207;-79
2021/12/14 00:57:27;;;;;;;22.60;17.60;;;9.60;99.90;;;;;;4986799;28;20204;-80
2021/12/14 00:59:55;;;;;;;23.27;17.43;;;9.60;99.90;;;;;;4987209;28;20208;-79
2021/12/14 01:02:25;;;;;;;22.70;17.07;;;9.60;99.90;;;;;;4986469;28;20798;-80
2021/12/14 01:04:58;;;;;;;24.90;17.87;;;9.50;99.90;;;;;;4990794;28;20198;-78
2021/12/14 01:07:30;;;;;;;27.50;19.57;;;9.50;99.90;;;;;;4990780;28;20203;-78
2021/12/14 01:10:01;;;;;;;25.27;17.60;;;9.50;99.90;;;;;;5006682;28;20203;-80
2021/12/14 01:12:37;;;;;;;28.70;19.20;;;9.50;99.90;;;;;;5005655;28;20250;-79
2021/12/14 01:15:24;;;;;;;28.97;18.40;;;9.50;99.90;;;;;;4999700;28;20286;-81
2021/12/14 01:18:02;;;;;;;24.43;18.57;;;9.50;99.90;;;;;;4986644;28;20214;-79
2021/12/14 01:20:37;;;;;;;25.87;19.53;;;9.50;99.90;;;;;;4986438;28;20581;-79
2021/12/14 01:23:14;;;;;;;29.00;19.33;;;9.50;99.90;;;;;;4985848;28;20278;-80
2021/12/14 01:25:44;;;;;;;32.40;20.07;;;9.50;99.90;;;;;;4986845;28;20231;-78
2021/12/14 01:28:14;;;;;;;29.27;20.57;;;9.50;99.90;;;;;;4986891;28;20535;-80
2021/12/14 01:30:56;;;;;;;29.33;21.47;;;9.50;99.90;;;;;;4986485;28;20207;-79
2021/12/14 01:33:25;;;;;;;29.87;20.53;;;9.50;99.90;;;;;;4986285;28;20293;-79
2021/12/14 01:35:53;;;;;;;30.60;21.37;;;9.50;99.90;;;;;;4985986;28;20200;-78
2021/12/14 01:38:33;;;;;;;31.77;20.80;;;9.50;99.90;;;;;;4986858;28;20207;-79
2021/12/14 01:41:04;;;;;;;30.33;20.57;;;9.50;99.90;;;;;;4986469;28;20198;-77
2021/12/14 01:43:36;;;;;;;29.27;21.60;;;9.50;99.90;;;;;;4986506;28;20203;-77
2021/12/14 01:46:09;;;;;;;31.87;22.20;;;9.50;99.90;;;;;;4993990;28;20212;-76
2021/12/14 01:48:36;;;;;;;30.10;21.43;;;9.40;99.90;;;;;;4986494;28;20220;-78
2021/12/14 01:51:07;;;;;;;35.07;20.97;;;9.40;99.90;;;;;;4986676;28;20227;-77
2021/12/14 01:53:36;;;;;;;27.67;20.57;;;9.50;99.90;;;;;;4992491;28;20318;-80
2021/12/14 01:56:10;;;;;;;29.00;20.77;;;9.40;99.90;;;;;;5005512;28;20203;-80
2021/12/14 01:58:41;;;;;;;25.13;19.03;;;9.40;99.90;;;;;;5004976;28;20194;-79
2021/12/14 02:01:12;;;;;;;25.87;19.83;;;9.40;99.90;;;;;;4992755;28;20231;-80
2021/12/14 02:03:52;;;;;;;32.03;21.07;;;9.40;99.90;;;;;;4985628;28;20508;-80
2021/12/14 02:06:23;;;;;;;30.50;21.30;;;9.40;99.90;;;;;;4987182;28;20627;-77
2021/12/14 02:08:57;;;;;;;33.80;21.93;;;9.40;99.90;;;;;;5006196;28;20219;-77
2021/12/14 02:11:25;;;;;;;31.43;21.57;;;9.40;99.90;;;;;;5002146;28;20604;-78
2021/12/14 02:13:54;;;;;;;31.03;21.50;;;9.40;99.90;;;;;;4986839;28;20254;-78
2021/12/14 02:16:23;;;;;;;32.83;22.13;;;9.40;99.90;;;;;;4986790;28;20612;-80
2021/12/14 02:18:54;;;;;;;32.50;22.90;;;9.50;99.90;;;;;;4986073;28;20538;-79
2021/12/14 02:21:22;;;;;;;35.23;22.03;;;9.40;99.90;;;;;;4985865;28;20292;-78
2021/12/14 02:23:54;;;;;;;30.87;22.37;;;9.40;99.90;;;;;;4985993;28;20234;-77
2021/12/14 02:26:25;;;;;;;29.37;22.20;;;9.40;99.90;;;;;;4985127;28;20671;-79
2021/12/14 02:28:54;;;;;;;34.67;24.00;;;9.40;99.90;;;;;;4986407;28;20322;-79
2021/12/14 02:31:27;;;;;;;32.03;23.57;;;9.40;99.90;;;;;;4985685;28;20243;-78
2021/12/14 02:33:56;;;;;;;32.87;21.97;;;9.40;99.90;;;;;;4985588;28;20231;-77
2021/12/14 02:36:27;;;;;;;30.27;21.73;;;9.40;99.90;;;;;;4985833;28;20215;-78
2021/12/14 02:39:06;;;;;;;31.23;22.77;;;9.40;99.90;;;;;;4985386;28;20227;-78
2021/12/14 02:41:34;;;;;;;33.53;23.73;;;9.40;99.90;;;;;;4985861;28;20204;-78
2021/12/14 02:44:02;;;;;;;37.80;25.07;;;9.40;99.90;;;;;;4987211;28;20200;-79
2021/12/14 02:46:32;;;;;;;32.73;23.33;;;9.40;99.90;;;;;;5004635;28;20214;-79
2021/12/14 02:49:01;;;;;;;31.77;22.73;;;9.30;99.90;;;;;;4986545;28;20608;-79
2021/12/14 02:51:34;;;;;;;34.73;24.43;;;9.30;99.90;;;;;;4985480;28;20295;-78
2021/12/14 02:54:06;;;;;;;34.43;23.60;;;9.30;99.90;;;;;;4984635;28;20231;-79
2021/12/14 02:56:35;;;;;;;30.73;23.80;;;9.30;99.90;;;;;;4985111;28;20204;-79
2021/12/14 02:59:06;;;;;;;41.43;24.30;;;9.30;99.90;;;;;;4986297;28;20230;-78
2021/12/14 03:01:34;;;;;;;37.37;24.50;;;9.30;99.90;;;;;;4984907;28;20247;-79
2021/12/14 03:04:03;;;;;;;33.73;24.43;;;9.30;99.90;;;;;;4985491;28;20212;-78
2021/12/14 03:06:36;;;;;;;34.50;24.10;;;9.30;99.90;;;;;;4985377;28;20227;-78
2021/12/14 03:09:16;;;;;;;33.00;24.47;;;9.30;99.90;;;;;;4986640;28;20200;-78
2021/12/14 03:11:45;;;;;;;39.23;25.93;;;9.30;99.90;;;;;;4988425;28;20200;-78
2021/12/14 03:14:12;;;;;;;36.53;25.40;;;9.30;99.90;;;;;;4987927;28;20555;-79
2021/12/14 03:16:40;;;;;;;37.90;24.93;;;9.30;99.90;;;;;;4988752;28;20208;-78
2021/12/14 03:19:09;;;;;;;36.77;25.83;;;9.30;99.90;;;;;;4988660;28;20199;-78
2021/12/14 03:21:41;;;;;;;35.40;24.60;;;9.30;99.90;;;;;;4988358;28;20207;-78
2021/12/14 03:24:10;;;;;;;33.03;23.50;;;9.30;99.90;;;;;;4990069;28;20196;-79
2021/12/14 03:26:42;;;;;;;40.07;25.67;;;9.30;99.90;;;;;;4989685;28;20542;-79
2021/12/14 03:29:17;;;;;;;35.23;25.07;;;9.30;99.90;;;;;;4988520;28;20208;-80
2021/12/14 03:31:46;;;;;;;39.43;26.13;;;9.30;99.90;;;;;;5001839;28;20254;-79
2021/12/14 03:34:16;;;;;;;36.77;24.67;;;9.40;99.90;;;;;;5008312;28;20345;-79
2021/12/14 03:36:48;;;;;;;40.17;27.30;;;9.30;99.90;;;;;;5008163;28;20211;-79
2021/12/14 03:39:18;;;;;;;39.53;25.17;;;9.30;99.90;;;;;;4995381;28;20218;-78
2021/12/14 03:41:47;;;;;;;39.83;25.97;;;9.30;99.90;;;;;;4988295;28;20220;-77
2021/12/14 03:44:17;;;;;;;38.23;24.30;;;9.30;99.90;;;;;;4988420;28;20208;-78
2021/12/14 03:46:49;;;;;;;42.13;24.97;;;9.30;99.90;;;;;;4992998;28;20214;-79
2021/12/14 03:49:17;;;;;;;42.20;25.37;;;9.30;99.90;;;;;;5008456;28;20195;-78
2021/12/14 03:51:46;;;;;;;36.23;25.23;;;9.30;99.90;;;;;;5008506;28;20978;-79
2021/12/14 03:54:15;;;;;;;33.67;22.80;;;9.30;99.90;;;;;;5008396;28;20587;-78
2021/12/14 03:56:42;;;;;;;36.53;24.73;;;9.30;99.90;;;;;;5001075;28;20262;-80
2021/12/14 03:59:09;;;;;;;36.43;24.67;;;9.30;99.90;;;;;;4988811;28;20627;-79
2021/12/14 04:01:39;;;;;;;37.43;24.23;;;9.20;99.90;;;;;;5001355;28;20951;-79
2021/12/14 04:04:14;;;;;;;41.30;25.80;;;9.30;99.90;;;;;;5008450;28;20210;-78
2021/12/14 04:06:41;;;;;;;41.90;24.83;;;9.30;99.90;;;;;;5008230;28;20203;-79
2021/12/14 04:09:13;;;;;;;36.43;25.23;;;9.30;99.90;;;;;;4992101;28;20220;-79
2021/12/14 04:11:41;;;;;;;37.83;25.80;;;9.30;99.90;;;;;;4987928;28;20207;-78
2021/12/14 04:14:09;;;;;;;35.23;23.97;;;9.30;99.90;;;;;;4988615;28;20235;-80
2021/12/14 04:16:37;;;;;;;36.03;24.67;;;9.30;99.90;;;;;;4988247;28;20274;-80
2021/12/14 04:19:06;;;;;;;36.83;25.27;;;9.30;99.90;;;;;;4988415;28;20215;-79
2021/12/14 04:21:35;;;;;;;34.33;24.60;;;9.30;99.90;;;;;;4988338;28;20823;-79
2021/12/14 04:24:02;;;;;;;36.20;24.60;;;9.30;99.90;;;;;;5005827;28;20662;-79
2021/12/14 04:26:30;;;;;;;38.30;24.27;;;9.30;99.90;;;;;;5007075;28;20203;-79
2021/12/14 04:28:59;;;;;;;33.23;24.27;;;9.30;99.90;;;;;;5007446;28;20622;-78
2021/12/14 04:31:26;;;;;;;36.23;23.07;;;9.30;99.90;;;;;;5006625;28;20226;-79
2021/12/14 04:33:55;;;;;;;37.50;25.20;;;9.30;99.90;;;;;;5007783;28;20314;-79
2021/12/14 04:36:27;;;;;;;34.77;24.17;;;9.30;99.90;;;;;;4989103;28;20231;-78
2021/12/14 04:38:59;;;;;;;36.77;24.53;;;9.30;99.90;;;;;;4987870;28;20199;-78
2021/12/14 04:52:31;;;;;;;41.30;27.23;;;9.30;99.90;;;;;;4987147;28;20243;-79
2021/12/14 04:55:00;;;;;;;48.27;27.23;;;9.20;99.90;;;;;;4987683;28;20227;-78
2021/12/14 04:57:30;;;;;;;43.47;26.40;;;9.20;99.90;;;;;;4987585;28;20518;-77
2021/12/14 05:00:11;;;;;;;36.47;25.70;;;9.30;99.90;;;;;;4987711;28;20208;-79
2021/12/14 05:02:38;;;;;;;40.63;25.83;;;9.30;99.90;;;;;;4988856;28;20208;-79
2021/12/14 05:05:06;;;;;;;36.97;25.73;;;9.20;99.90;;;;;;4986688;28;20219;-77
2021/12/14 05:07:47;;;;;;;37.30;24.40;;;9.20;99.90;;;;;;4986926;28;20239;-79
2021/12/14 05:10:17;;;;;;;39.63;25.77;;;9.20;99.90;;;;;;4987288;28;20208;-79
2021/12/14 05:12:45;;;;;;;39.03;26.50;;;9.30;99.90;;;;;;4987231;28;20214;-78
2021/12/14 05:15:15;;;;;;;41.37;25.50;;;9.20;99.90;;;;;;4986622;28;20215;-79
2021/12/14 05:17:43;;;;;;;38.17;25.27;;;9.20;99.90;;;;;;4986781;28;20204;-79
2021/12/14 05:20:13;;;;;;;39.93;27.53;;;9.20;99.90;;;;;;4987051;28;20200;-77
2021/12/14 05:22:44;;;;;;;41.47;26.07;;;9.30;99.90;;;;;;4986693;28;20215;-79
2021/12/14 05:25:15;;;;;;;42.67;25.43;;;9.30;99.90;;;;;;4987325;28;20204;-79
2021/12/14 05:27:45;;;;;;;39.23;25.30;;;9.30;99.90;;;;;;4986887;28;20588;-79
2021/12/14 05:30:18;;;;;;;46.40;26.50;;;9.20;99.90;;;;;;4987724;28;20295;-79
2021/12/14 05:32:46;;;;;;;40.70;26.70;;;9.20;99.90;;;;;;4986375;28;20320;-79
2021/12/14 05:35:17;;;;;;;45.30;27.30;;;9.30;99.90;;;;;;4986649;28;20207;-79
2021/12/14 05:37:48;;;;;;;42.07;26.77;;;9.30;99.90;;;;;;4986876;28;20586;-78
2021/12/14 05:40:25;;;;;;;45.70;29.63;;;9.30;99.90;;;;;;4994470;28;20242;-77
2021/12/14 05:43:07;;;;;;;46.43;27.50;;;9.30;99.90;;;;;;5005699;28;20211;-78
2021/12/14 05:45:38;;;;;;;40.63;26.60;;;9.30;99.90;;;;;;5004757;28;20199;-79
2021/12/14 05:48:08;;;;;;;45.50;27.27;;;9.30;99.90;;;;;;5004242;28;20544;-78
2021/12/14 05:50:37;;;;;;;47.70;28.30;;;9.30;99.90;;;;;;4986047;28;20218;-78
2021/12/14 05:53:05;;;;;;;46.50;27.50;;;9.30;99.90;;;;;;4987185;28;20219;-79
2021/12/14 05:55:35;;;;;;;48.07;27.47;;;9.30;99.90;;;;;;4986731;28;20208;-78
2021/12/14 05:58:04;;;;;;;43.60;25.83;;;9.30;99.90;;;;;;4987067;28;20883;-78
2021/12/14 06:00:34;;;;;;;46.60;27.40;;;9.30;99.90;;;;;;4986381;28;20234;-78
2021/12/14 06:03:02;;;;;;;39.97;25.23;;;9.30;99.90;;;;;;4986198;28;20301;-77
2021/12/14 06:05:31;;;;;;;45.60;26.83;;;9.30;99.90;;;;;;4985509;28;20202;-78
2021/12/14 06:07:58;;;;;;;42.93;24.43;;;9.30;99.90;;;;;;4986714;28;20242;-79
2021/12/14 06:10:27;;;;;;;44.13;25.33;;;9.30;99.90;;;;;;4985228;28;20620;-79
2021/12/14 06:12:54;;;;;;;43.37;24.40;;;9.40;99.90;;;;;;4986963;28;20203;-79
2021/12/14 06:15:27;;;;;;;40.30;23.90;;;9.30;99.90;;;;;;4986423;28;20235;-79
2021/12/14 06:17:56;;;;;;;43.30;25.03;;;9.30;99.90;;;;;;4986494;28;20200;-77
2021/12/14 06:20:25;;;;;;;43.07;24.90;;;9.30;99.90;;;;;;4997556;28;20685;-79
2021/12/14 06:22:54;;;;;;;45.87;25.20;;;9.40;99.90;;;;;;5005936;28;20636;-79
2021/12/14 06:25:25;;;;;;;38.83;23.63;;;9.30;99.90;;;;;;4987311;28;20207;-80
2021/12/14 06:27:55;;;;;;;47.83;26.13;;;9.30;99.90;;;;;;4986962;28;20204;-79
2021/12/14 06:30:25;;;;;;;41.70;25.33;;;9.40;99.90;;;;;;4986321;28;20212;-80
2021/12/14 06:32:56;;;;;;;43.83;25.37;;;9.30;99.90;;;;;;4986389;28;20247;-79
2021/12/14 06:35:27;;;;;;;43.33;24.30;;;9.30;99.90;;;;;;4985995;28;20216;-78
2021/12/14 06:38:27;;;;;;;45.43;25.70;;;9.30;99.90;;;;;;4984784;28;20589;-79
2021/12/14 06:41:06;;;;;;;43.80;25.70;;;9.30;99.90;;;;;;4986326;28;20204;-80
2021/12/14 06:43:36;;;;;;;51.23;26.27;;;9.40;99.90;;;;;;4986269;28;20204;-78
2021/12/14 06:46:08;;;;;;;45.10;24.60;;;9.40;99.90;;;;;;5006857;28;20195;-77
2021/12/14 06:48:39;;;;;;;45.77;25.77;;;9.40;99.90;;;;;;5009751;28;20195;-79
2021/12/14 06:51:11;;;;;;;46.23;25.30;;;9.40;99.90;;;;;;5009784;28;20218;-79
2021/12/14 06:53:40;;;;;;;52.57;26.63;;;9.40;99.90;;;;;;5007399;28;20524;-79
2021/12/14 06:56:10;;;;;;;44.00;24.23;;;9.40;99.90;;;;;;4990092;28;20208;-77
2021/12/14 06:58:46;;;;;;;51.87;25.77;;;9.40;99.90;;;;;;4989726;28;20491;-77
2021/12/14 07:01:17;;;;;;;49.93;26.27;;;9.40;99.90;;;;;;4989526;28;20323;-78
2021/12/14 07:03:49;;;;;;;49.43;26.93;;;9.40;99.90;;;;;;4989431;28;20615;-79
2021/12/14 07:06:25;;;;;;;47.10;24.63;;;9.40;99.90;;;;;;4989025;28;20644;-79
2021/12/14 07:08:53;;;;;;;50.00;26.07;;;9.40;99.90;;;;;;4989771;28;20226;-80
2021/12/14 07:11:21;;;;;;;46.23;26.10;;;9.40;99.90;;;;;;4989342;28;20212;-78
2021/12/14 07:13:48;;;;;;;43.80;24.30;;;9.40;99.90;;;;;;4988932;28;20235;-79
2021/12/14 07:16:21;;;;;;;48.23;25.90;;;9.40;99.90;;;;;;4989682;28;20214;-78
2021/12/14 07:18:55;;;;;;;45.73;25.23;;;9.40;99.90;;;;;;4990357;28;20206;-78
2021/12/14 07:21:37;;;;;;;46.57;24.70;;;9.40;99.90;;;;;;4989338;28;20830;-79
2021/12/14 07:24:30;;;;;;;39.03;23.63;;;9.40;99.90;;;;;;4990918;28;20250;-80
2021/12/14 07:27:18;;;;;;;46.63;24.93;;;9.40;99.90;;;;;;5002966;28;20245;-79
2021/12/14 07:29:46;;;;;;;42.00;24.87;;;9.40;99.90;;;;;;4991883;28;20215;-79
2021/12/14 07:32:14;;;;;;;55.43;27.70;;;9.40;99.90;;;;;;4989914;28;20240;-80
2021/12/14 07:34:42;;;;;;;43.53;25.07;;;9.40;99.90;;;;;;4992442;28;20292;-79
2021/12/14 07:37:09;;;;;;;45.67;24.53;;;9.40;99.90;;;;;;5009983;28;20203;-80
2021/12/14 07:39:51;;;;;;;47.83;25.93;;;9.40;99.90;;;;;;4997199;28;20199;-81
2021/12/14 07:42:18;;;;;;;46.57;25.03;;;9.40;99.90;;;;;;5010511;28;20222;-82
2021/12/14 07:44:45;;;;;;;50.37;25.07;;;9.40;99.90;;;;;;4997553;28;20215;-80
2021/12/14 07:47:16;;;;;;;40.47;22.83;;;9.40;99.90;;;;;;5010143;28;20211;-82
2021/12/14 07:49:46;;;;;;;54.40;26.57;;;9.40;99.90;;;;;;4997038;28;20215;-82
2021/12/14 07:52:16;;;;;;;42.30;23.93;;;9.40;99.90;;;;;;4990097;28;20280;-81
2021/12/14 07:54:46;;;;;;;43.63;23.70;;;9.40;99.90;;;;;;4989084;28;20212;-80
2021/12/14 07:57:15;;;;;;;48.23;25.67;;;9.40;99.90;;;;;;4989993;28;20214;-81
2021/12/14 07:59:45;;;;;;;50.60;24.73;;;9.40;99.90;;;;;;4989732;28;20212;-81
2021/12/14 08:02:16;;;;;;;49.50;25.50;;;9.40;99.90;;;;;;4989719;28;20212;-81
2021/12/14 08:04:48;;;;;;;51.53;27.33;;;9.40;99.90;;;;;;4989771;28;20215;-82
2021/12/14 08:07:23;;;;;;;47.33;26.20;;;9.40;99.90;;;;;;4990507;28;20200;-82
2021/12/14 08:09:52;;;;;;;51.30;25.20;;;9.40;99.90;;;;;;5007674;28;20227;-83
2021/12/14 08:12:35;;;;;;;54.37;25.10;;;9.40;99.90;;;;;;5010396;28;20255;-82
2021/12/14 08:15:09;;;;;;;46.60;24.30;;;9.40;99.90;;;;;;5001462;28;20537;-82
2021/12/14 08:17:38;;;;;;;51.50;24.60;;;9.40;99.90;;;;;;4991069;28;20204;-83
2021/12/14 08:20:09;;;;;;;46.47;24.07;;;9.40;99.90;;;;;;4991725;28;20208;-83
2021/12/14 08:22:38;;;;;;;47.97;24.03;;;9.40;99.90;;;;;;4991583;28;20809;-83
2021/12/14 08:25:06;;;;;;;43.87;23.83;;;9.40;99.90;;;;;;4991965;28;20215;-83
2021/12/14 08:27:34;;;;;;;47.07;23.60;;;9.40;99.90;;;;;;4991388;28;20666;-82
2021/12/14 08:30:05;;;;;;;52.53;26.00;;;9.40;99.90;;;;;;4990720;28;20195;-85
2021/12/14 08:32:34;;;;;;;46.93;22.60;;;9.40;99.90;;;;;;4991092;28;20239;-82
2021/12/14 08:35:07;;;;;;;47.93;23.73;;;9.50;99.90;;;;;;4993630;28;20227;-86
2021/12/14 08:37:37;;;;;;;53.63;25.90;;;9.50;99.90;;;;;;5006040;28;20489;-87
2021/12/14 08:40:10;;;;;;;49.03;24.90;;;9.50;99.90;;;;;;5013430;28;20451;-86
2021/12/14 08:42:46;;;;;;;52.27;24.03;;;9.50;99.90;;;;;;5012610;28;20187;-87
2021/12/14 08:45:28;;;;;;;46.43;23.00;;;9.50;99.90;;;;;;5012812;28;20257;-86
2021/12/14 08:48:07;;;;;;;50.73;25.30;;;9.50;99.90;;;;;;5012389;28;20600;-89
2021/12/14 08:50:41;;;;;;;46.90;24.03;;;9.50;99.90;;;;;;5011260;28;20198;-86
2021/12/14 08:53:10;;;;;;;46.93;24.47;;;9.50;99.90;;;;;;5017974;28;20214;-85
2021/12/14 08:55:38;;;;;;;49.50;22.57;;;9.50;99.90;;;;;;5021706;28;20580;-85
2021/12/14 08:58:06;;;;;;;47.63;23.63;;;9.50;99.90;;;;;;5022690;28;20225;-86
2021/12/14 09:00:37;;;;;;;46.40;24.20;;;9.50;99.90;;;;;;5022101;28;20701;-86
2021/12/14 09:03:08;;;;;;;43.90;23.00;;;9.50;99.90;;;;;;5012365;28;20269;-86
2021/12/14 09:05:42;;;;;;;43.53;23.10;;;9.50;99.90;;;;;;5015767;28;20210;-85
2021/12/14 09:08:09;;;;;;;53.53;24.63;;;9.50;99.90;;;;;;5005803;28;20280;-86
2021/12/14 09:10:40;;;;;;;52.37;22.53;;;9.50;99.90;;;;;;5020327;28;20203;-86
2021/12/14 09:13:11;;;;;;;47.00;22.97;;;9.50;99.90;;;;;;5020065;28;20210;-86
2021/12/14 09:15:43;;;;;;;47.07;23.63;;;9.60;99.90;;;;;;5011935;28;20231;-85
2021/12/14 09:18:10;;;;;;;47.87;22.23;;;9.50;99.90;;;;;;5011172;28;20200;-86
2021/12/14 09:20:45;;;;;;;49.43;23.43;;;9.50;99.90;;;;;;5018100;28;20222;-85
2021/12/14 09:23:15;;;;;;;43.27;22.63;;;9.50;99.90;;;;;;5010553;28;20187;-86
2021/12/14 09:25:44;;;;;;;41.53;21.27;;;9.60;99.90;;;;;;5017692;28;20207;-85
2021/12/14 09:28:12;;;;;;;44.83;22.97;;;9.60;99.90;;;;;;5014724;28;20191;-85
2021/12/14 09:30:44;;;;;;;41.30;21.53;;;9.60;99.90;;;;;;5012712;28;20203;-86
2021/12/14 09:33:12;;;;;;;37.47;21.40;;;9.60;99.90;;;;;;5014496;28;20238;-85
2021/12/14 09:35:45;;;;;;;46.40;23.30;;;9.60;99.90;;;;;;5013023;28;20296;-86
2021/12/14 09:38:17;;;;;;;49.27;23.50;;;9.60;99.90;;;;;;4999312;28;20306;-85
2021/12/14 09:40:48;;;;;;;42.47;21.60;;;9.60;99.90;;;;;;5018197;28;20221;-85
2021/12/14 09:43:15;;;;;;;40.90;22.30;;;9.70;99.90;;;;;;5020545;28;20564;-86
2021/12/14 09:45:45;;;;;;;47.97;25.07;;;9.70;99.90;;;;;;5015710;28;20206;-84
2021/12/14 09:48:14;;;;;;;42.63;21.47;;;9.70;99.90;;;;;;5019604;28;20237;-85
2021/12/14 09:50:45;;;;;;;39.27;22.03;;;9.70;99.90;;;;;;5026746;28;20214;-85
2021/12/14 09:53:17;;;;;;;38.97;20.87;;;9.70;99.90;;;;;;5022295;28;20213;-84
2021/12/14 09:55:46;;;;;;;35.83;20.90;;;9.70;99.90;;;;;;5012958;28;20314;-86
2021/12/14 09:58:16;;;;;;;40.23;20.77;;;9.70;99.90;;;;;;5010974;28;20222;-85
2021/12/14 10:00:48;;;;;;;42.70;22.87;;;9.80;99.90;;;;;;5023618;28;20238;-84
2021/12/14 10:03:17;;;;;;;39.43;21.90;;;9.80;99.90;;;;;;5016137;28;20477;-85
2021/12/14 10:05:48;;;;;;;35.43;20.77;;;9.90;99.90;;;;;;5019348;28;20199;-85
2021/12/14 10:08:21;;;;;;;34.87;20.13;;;9.90;99.90;;;;;;5021166;28;20205;-84
2021/12/14 10:11:01;;;;;;;39.73;20.77;;;9.90;99.90;;;;;;5014806;28;20202;-86
2021/12/14 10:13:30;;;;;;;41.43;21.67;;;9.90;99.90;;;;;;5015260;28;20206;-84
2021/12/14 10:15:59;;;;;;;40.40;22.33;;;10.00;99.90;;;;;;5010039;28;20231;-86
2021/12/14 10:18:32;;;;;;;41.83;22.60;;;10.00;99.90;;;;;;5013210;28;20206;-85
2021/12/14 10:21:06;;;;;;;42.33;23.00;;;10.00;99.90;;;;;;5021399;28;20245;-85
2021/12/14 10:23:34;;;;;;;35.83;19.30;;;10.00;99.90;;;;;;5024763;28;20211;-88
2021/12/14 10:26:02;;;;;;;34.50;18.23;;;10.00;99.90;;;;;;5016328;28;20207;-88
2021/12/14 10:28:30;;;;;;;31.50;16.70;;;10.00;99.90;;;;;;5027309;28;20202;-88
2021/12/14 10:31:00;;;;;;;30.67;16.63;;;10.00;99.90;;;;;;5023621;28;20513;-85
2021/12/14 10:33:38;;;;;;;36.03;16.77;;;10.00;99.90;;;;;;5021249;28;20203;-87
2021/12/14 10:36:19;;;;;;;30.57;16.17;;;10.10;99.90;;;;;;5022057;28;20241;-86
2021/12/14 10:39:05;;;;;;;34.97;14.87;;;10.00;99.90;;;;;;5019161;28;20261;-89
2021/12/14 10:44:40;;;;;;;28.97;13.80;;;10.00;99.90;;;;;;5021449;28;21199;-88
2021/12/14 10:47:08;;;;;;;29.60;12.43;;;10.10;99.90;;;;;;5028330;28;20611;-89
2021/12/14 10:49:35;;;;;;;30.63;12.27;;;10.10;99.90;;;;;;5019019;28;20227;-87
2021/12/14 10:52:07;;;;;;;29.50;14.27;;;10.10;99.90;;;;;;5019656;28;20217;-87
2021/12/14 10:54:35;;;;;;;29.33;13.37;;;10.10;99.90;;;;;;5026627;28;20195;-86
2021/12/14 10:57:06;;;;;;;28.60;14.17;;;10.10;99.90;;;;;;5016953;28;20238;-84
2021/12/14 10:59:37;;;;;;;32.07;12.97;;;10.10;99.90;;;;;;5022748;28;20245;-85
2021/12/14 11:02:05;;;;;;;29.20;14.50;;;10.10;99.90;;;;;;5019849;28;20239;-88
2021/12/14 11:04:39;;;;;;;32.83;16.93;;;10.10;99.90;;;;;;5009450;28;20254;-88
2021/12/14 11:07:11;;;;;;;27.87;16.27;;;10.10;99.90;;;;;;5021304;28;20211;-86
2021/12/14 11:09:42;;;;;;;33.23;15.57;;;10.10;99.90;;;;;;5027840;28;20206;-86
2021/12/14 11:12:19;;;;;;;25.90;15.10;;;10.10;99.90;;;;;;5021765;28;20211;-89
2021/12/14 11:14:48;;;;;;;31.20;17.83;;;10.10;99.90;;;;;;5020813;28;20194;-89
2021/12/14 11:20:04;;;;;;;24.73;13.80;;;10.20;99.90;;;;;;5021102;28;20202;-84
2021/12/14 11:22:43;;;;;;;31.63;14.13;;;10.20;99.90;;;;;;5032914;28;20237;-84
2021/12/14 11:25:13;;;;;;;31.10;16.57;;;10.20;99.90;;;;;;5014515;28;20203;-86
2021/12/14 11:27:47;;;;;;;31.83;15.20;;;10.20;99.90;;;;;;5018975;28;20611;-84
2021/12/14 11:30:19;;;;;;;23.97;14.10;;;10.20;99.90;;;;;;5023277;28;20221;-84
2021/12/14 11:32:48;;;;;;;27.90;13.50;;;10.20;99.90;;;;;;5024576;28;20635;-86
2021/12/14 11:35:19;;;;;;;28.70;14.30;;;10.20;99.90;;;;;;5017568;28;20296;-82
2021/12/14 11:37:47;;;;;;;32.20;14.03;;;10.20;99.90;;;;;;5022075;28;20226;-85
2021/12/14 11:40:15;;;;;;;28.97;12.43;;;10.20;99.90;;;;;;5016594;28;20211;-89
2021/12/14 11:42:42;;;;;;;25.27;12.33;;;10.30;99.90;;;;;;5022968;28;20693;-88
2021/12/14 11:45:16;;;;;;;25.67;10.57;;;10.30;99.90;;;;;;5017414;28;20206;-86
2021/12/14 11:47:48;;;;;;;25.50;11.27;;;10.30;99.90;;;;;;5026709;28;20210;-85
2021/12/14 11:50:23;;;;;;;26.20;12.27;;;10.30;99.90;;;;;;5019757;28;20203;-85
2021/12/14 11:52:57;;;;;;;33.70;12.00;;;10.30;99.90;;;;;;5013347;28;20203;-89
2021/12/14 11:55:35;;;;;;;22.83;12.23;;;10.30;99.90;;;;;;5012073;28;20235;-85
2021/12/14 11:58:11;;;;;;;30.23;13.30;;;10.40;99.90;;;;;;5012558;28;20203;-85
2021/12/14 12:00:41;;;;;;;26.10;12.03;;;10.40;99.90;;;;;;5011709;28;20928;-91
2021/12/14 12:03:36;;;;;;;25.93;12.53;;;10.30;99.90;;;;;;5006010;28;20215;-93
2021/12/14 12:06:10;;;;;;;27.67;12.93;;;10.40;99.90;;;;;;4947578;28;20204;-87
2021/12/14 12:11:38;;;;;;;24.97;10.83;;;10.40;99.90;;;;;;4993497;28;20235;-89
2021/12/14 12:14:22;;;;;;;27.00;10.43;;;10.40;99.90;;;;;;5011730;28;20183;-82
2021/12/14 12:16:49;;;;;;;28.63;10.37;;;10.40;99.90;;;;;;5011262;28;20215;-86
2021/12/14 12:19:20;;;;;;;27.33;9.23;;;10.40;99.90;;;;;;4996040;28;20227;-85
2021/12/14 12:21:49;;;;;;;19.37;8.13;;;10.40;99.90;;;;;;4991798;28;20203;-86
2021/12/14 12:24:43;;;;;;;29.13;8.73;;;10.40;99.90;;;;;;4992591;28;20208;-88
2021/12/14 12:27:32;;;;;;;23.00;8.40;;;10.40;99.90;;;;;;5017887;28;20211;-86
2021/12/14 12:30:22;;;;;;;20.50;8.77;;;10.50;99.90;;;;;;5011175;28;20195;-91
2021/12/14 12:32:50;;;;;;;18.27;8.00;;;10.40;99.90;;;;;;5012379;28;20346;-92
2021/12/14 12:35:29;;;;;;;29.80;7.70;;;10.40;99.90;;;;;;5016161;28;20222;-88
2021/12/14 12:38:00;;;;;;;26.50;8.77;;;10.40;99.90;;;;;;5009461;28;20203;-91
2021/12/14 12:40:47;;;;;;;22.73;8.90;;;10.40;99.90;;;;;;5010080;28;20207;-87
2021/12/14 12:43:23;;;;;;;19.87;7.33;;;10.40;99.90;;;;;;5019155;28;20210;-83
2021/12/14 12:45:58;;;;;;;24.07;9.20;;;10.40;99.90;;;;;;5011694;28;20206;-86
2021/12/14 12:48:54;;;;;;;26.03;8.17;;;10.40;99.90;;;;;;5009685;28;20210;-89
2021/12/14 12:52:08;;;;;;;22.43;8.30;;;10.40;99.90;;;;;;5009636;28;20200;-84
2021/12/14 12:54:56;;;;;;;24.13;7.50;;;10.40;99.90;;;;;;4991339;28;20520;-83
2021/12/14 12:57:45;;;;;;;21.27;8.27;;;10.40;99.90;;;;;;4989978;28;20683;-83
2021/12/14 13:00:29;;;;;;;21.77;9.37;;;10.40;99.90;;;;;;4991304;28;20315;-83
2021/12/14 13:03:01;;;;;;;24.03;9.10;;;10.40;99.90;;;;;;4990530;28;20252;-85
2021/12/14 13:05:33;;;;;;;22.73;8.20;;;10.40;99.90;;;;;;4990201;28;20817;-85
2021/12/14 13:08:09;;;;;;;18.73;7.67;;;10.40;99.90;;;;;;4993711;28;20204;-82
2021/12/14 13:10:40;;;;;;;18.90;8.80;;;10.40;99.90;;;;;;4991326;28;20202;-82
2021/12/14 13:13:13;;;;;;;19.17;7.70;;;10.40;99.90;;;;;;4995516;28;20203;-83
2021/12/14 13:15:55;;;;;;;22.33;7.77;;;10.40;99.90;;;;;;4994466;28;20232;-81
2021/12/14 13:18:32;;;;;;;21.10;9.03;;;10.40;99.90;;;;;;4994804;28;20266;-81
2021/12/14 13:21:03;;;;;;;18.23;7.57;;;10.40;99.90;;;;;;4991681;28;20207;-85
2021/12/14 13:23:54;;;;;;;21.00;9.17;;;10.40;99.90;;;;;;4994949;28;20194;-82